createdAt,value
2023-04-16T00:01:02.332Z,100652.13
2023-04-16T00:03:29.030Z,100664.16
2023-04-16T00:05:56.480Z,100663.75
2023-04-16T00:08:26.189Z,100666.97
2023-04-16T00:10:55.707Z,100670.81
2023-04-16T00:13:22.721Z,100667.38
2023-04-16T00:15:49.326Z,100678.22
2023-04-16T00:18:15.905Z,100668.59
2023-04-16T00:20:42.439Z,100676.00
2023-04-16T00:23:08.962Z,100669.56
2023-04-16T00:25:35.476Z,100678.78
2023-04-16T00:28:01.940Z,100677.00
2023-04-16T00:30:28.465Z,100678.19
2023-04-16T00:32:54.922Z,100681.78
2023-04-16T00:35:21.518Z,100683.78
2023-04-16T00:37:48.003Z,100683.41
2023-04-16T00:40:14.539Z,100688.22
2023-04-16T00:42:41.354Z,100679.59
2023-04-16T00:45:08.609Z,100680.88
2023-04-16T00:47:35.118Z,100685.88
2023-04-16T00:50:04.442Z,100688.88
2023-04-16T00:52:34.792Z,100685.09
2023-04-16T00:55:01.522Z,100687.91
2023-04-16T00:57:28.103Z,100694.31
2023-04-16T00:59:54.836Z,100696.34
2023-04-16T01:02:21.396Z,100699.38
2023-04-16T01:04:48.134Z,100695.56
2023-04-16T01:07:14.612Z,100700.56
2023-04-16T01:09:41.366Z,100697.97
2023-04-16T01:12:07.843Z,100700.34
2023-04-16T01:14:36.409Z,100700.00
2023-04-16T01:17:03.994Z,100704.78
2023-04-16T01:19:36.351Z,100700.97
2023-04-16T01:22:04.255Z,100700.00
2023-04-16T01:24:31.138Z,100683.75
2023-04-16T01:27:00.942Z,100687.53
2023-04-16T01:29:27.689Z,100690.75
2023-04-16T01:31:54.503Z,100690.34
2023-04-16T01:34:21.066Z,100694.78
2023-04-16T01:36:47.624Z,100694.56
2023-04-16T01:39:16.280Z,100692.94
2023-04-16T01:41:43.006Z,100697.75
2023-04-16T01:44:09.467Z,100696.97
2023-04-16T01:46:37.754Z,100696.78
2023-04-16T01:49:05.082Z,100694.16
2023-04-16T01:51:32.275Z,100697.19
2023-04-16T01:53:59.036Z,100699.38
2023-04-16T01:56:25.798Z,100699.19
2023-04-16T01:58:52.966Z,100696.78
2023-04-16T02:01:19.663Z,100696.38
2023-04-16T02:03:47.131Z,100693.59
2023-04-16T02:06:13.866Z,100700.22
2023-04-16T02:08:41.483Z,100702.19
2023-04-16T02:11:08.250Z,100702.41
2023-04-16T02:13:34.924Z,100694.59
2023-04-16T02:16:02.507Z,100697.19
2023-04-16T02:18:29.105Z,100698.63
2023-04-16T02:20:58.561Z,100693.59
2023-04-16T02:23:25.153Z,100700.81
2023-04-16T02:25:51.669Z,100699.78
2023-04-16T02:28:18.222Z,100704.81
2023-04-16T02:30:45.192Z,100715.22
2023-04-16T02:33:12.308Z,100707.41
2023-04-16T02:35:40.225Z,100709.81
2023-04-16T02:38:07.671Z,100708.03
2023-04-16T02:40:34.239Z,100710.63
2023-04-16T02:43:00.886Z,100715.63
2023-04-16T02:45:27.851Z,100712.41
2023-04-16T02:47:54.460Z,100711.59
2023-04-16T02:50:21.124Z,100714.22
2023-04-16T02:52:48.544Z,100710.00
2023-04-16T02:55:15.034Z,100717.81
2023-04-16T02:57:42.522Z,100718.22
2023-04-16T03:00:09.825Z,100720.84
2023-04-16T03:02:36.485Z,100717.63
2023-04-16T03:05:03.872Z,100716.59
2023-04-16T03:07:30.413Z,100719.22
2023-04-16T03:09:57.007Z,100723.44
2023-04-16T03:12:23.534Z,100722.41
2023-04-16T03:14:52.392Z,100719.41
2023-04-16T03:17:18.915Z,100723.03
2023-04-16T03:19:45.442Z,100727.41
2023-04-16T03:22:11.942Z,100729.00
2023-04-16T03:24:38.407Z,100727.41
2023-04-16T03:27:04.952Z,100735.22
2023-04-16T03:29:31.400Z,100732.81
2023-04-16T03:31:58.444Z,100730.41
2023-04-16T03:34:24.955Z,100729.59
2023-04-16T03:36:51.366Z,100736.41
2023-04-16T03:39:17.908Z,100738.03
2023-04-16T03:41:44.308Z,100744.06
2023-04-16T03:44:10.976Z,100745.03
2023-04-16T03:46:37.574Z,100741.44
2023-04-16T03:49:04.259Z,100746.47
2023-04-16T03:51:30.953Z,100746.66
2023-04-16T03:53:57.531Z,100756.88
2023-04-16T03:56:24.102Z,100762.50
2023-04-16T03:58:50.600Z,100762.69
2023-04-16T04:01:17.066Z,100755.66
2023-04-16T04:03:43.876Z,100772.72
2023-04-16T04:06:10.559Z,100770.91
2023-04-16T04:08:37.042Z,100770.72
2023-04-16T04:11:03.641Z,100770.53
2023-04-16T04:13:30.255Z,100781.56
2023-04-16T04:15:56.838Z,100779.53
2023-04-16T04:18:23.443Z,100785.78
2023-04-16T04:20:49.965Z,100777.38
2023-04-16T04:23:16.475Z,100780.38
2023-04-16T04:25:43.015Z,100787.00
2023-04-16T04:28:09.489Z,100790.22
2023-04-16T04:30:35.990Z,100797.44
2023-04-16T04:33:02.843Z,100797.84
2023-04-16T04:35:29.401Z,100801.88
2023-04-16T04:37:55.925Z,100799.06
2023-04-16T04:40:22.416Z,100806.91
2023-04-16T04:42:49.089Z,100796.88
2023-04-16T04:45:16.074Z,100802.50
2023-04-16T04:47:42.666Z,100806.34
2023-04-16T04:50:09.799Z,100805.72
2023-04-16T04:52:36.360Z,100810.53
2023-04-16T04:55:02.876Z,100817.78
2023-04-16T04:57:29.384Z,100813.75
2023-04-16T04:59:55.902Z,100816.38
2023-04-16T05:02:22.499Z,100818.59
2023-04-16T05:04:49.104Z,100817.97
2023-04-16T05:07:16.263Z,100815.38
2023-04-16T05:09:42.779Z,100817.41
2023-04-16T05:12:09.273Z,100828.22
2023-04-16T05:14:36.345Z,100823.22
2023-04-16T05:17:03.037Z,100825.41
2023-04-16T05:19:29.713Z,100823.00
2023-04-16T05:21:56.277Z,100828.03
2023-04-16T05:24:23.205Z,100826.81
2023-04-16T05:26:49.710Z,100822.59
2023-04-16T05:29:16.187Z,100830.03
2023-04-16T05:31:42.772Z,100831.03
2023-04-16T05:34:09.251Z,100836.84
2023-04-16T05:36:35.788Z,100835.25
2023-04-16T05:39:06.482Z,100839.25
2023-04-16T05:41:33.590Z,100846.09
2023-04-16T05:44:00.399Z,100844.09
2023-04-16T05:46:26.920Z,100853.31
2023-04-16T05:48:53.448Z,100843.69
2023-04-16T05:51:21.963Z,100846.91
2023-04-16T05:53:48.533Z,100847.09
2023-04-16T05:56:14.948Z,100856.94
2023-04-16T05:58:41.416Z,100854.50
2023-04-16T06:01:07.865Z,100856.72
2023-04-16T06:03:34.353Z,100856.09
2023-04-16T06:06:00.896Z,100859.31
2023-04-16T06:08:27.457Z,100854.69
2023-04-16T06:10:53.905Z,100865.16
2023-04-16T06:13:20.484Z,100867.38
2023-04-16T06:15:47.057Z,100862.13
2023-04-16T06:18:13.748Z,100871.97
2023-04-16T06:20:40.523Z,100878.38
2023-04-16T06:23:06.958Z,100884.63
2023-04-16T06:25:33.421Z,100879.00
2023-04-16T06:27:59.841Z,100880.81
2023-04-16T06:30:26.405Z,100891.06
2023-04-16T06:32:53.651Z,100884.66
2023-04-16T06:35:20.259Z,100895.88
2023-04-16T06:37:47.300Z,100886.19
2023-04-16T06:40:13.909Z,100892.63
2023-04-16T06:42:40.983Z,100895.81
2023-04-16T06:45:09.713Z,100890.78
2023-04-16T06:47:36.146Z,100893.97
2023-04-16T06:50:02.628Z,100895.53
2023-04-16T06:52:29.590Z,100898.38
2023-04-16T06:54:56.737Z,100895.72
2023-04-16T06:57:23.492Z,100896.72
2023-04-16T06:59:50.386Z,100894.88
2023-04-16T07:02:19.800Z,100902.16
2023-04-16T07:04:46.935Z,100903.53
2023-04-16T07:07:13.501Z,100907.75
2023-04-16T07:09:40.053Z,100910.53
2023-04-16T07:12:07.184Z,100916.16
2023-04-16T07:14:33.840Z,100914.97
2023-04-16T07:17:00.578Z,100920.59
2023-04-16T07:19:30.560Z,100926.88
2023-04-16T07:21:57.303Z,100922.06
2023-04-16T07:24:24.263Z,100929.50
2023-04-16T07:26:50.855Z,100923.50
2023-04-16T07:29:17.289Z,100926.75
2023-04-16T07:31:45.272Z,100932.59
2023-04-16T07:34:12.144Z,100933.56
2023-04-16T07:36:41.503Z,100933.34
2023-04-16T07:39:08.476Z,100937.97
2023-04-16T07:41:35.538Z,100945.41
2023-04-16T07:44:02.212Z,100939.53
2023-04-16T07:46:39.410Z,100940.47
2023-04-16T07:49:12.607Z,100944.38
2023-04-16T07:51:39.330Z,100936.41
2023-04-16T07:54:06.007Z,100948.31
2023-04-16T07:56:32.466Z,100947.09
2023-04-16T07:59:07.968Z,100947.09
2023-04-16T08:01:46.045Z,100944.84
2023-04-16T08:04:12.941Z,100949.25
2023-04-16T08:06:39.790Z,100940.69
2023-04-16T08:09:06.396Z,100946.44
2023-04-16T08:11:33.216Z,100943.66
2023-04-16T08:13:59.699Z,100947.81
2023-04-16T08:16:26.490Z,100939.53
2023-04-16T08:18:59.194Z,100949.16
2023-04-16T08:21:28.093Z,100951.22
2023-04-16T08:23:54.638Z,100952.94
2023-04-16T08:26:21.368Z,100954.16
2023-04-16T08:28:48.029Z,100954.47
2023-04-16T08:31:14.573Z,100955.56
2023-04-16T08:33:44.127Z,100960.44
2023-04-16T08:36:11.178Z,100962.16
2023-04-16T08:38:37.770Z,100963.75
2023-04-16T08:41:09.715Z,100964.91
2023-04-16T08:43:39.355Z,100976.59
2023-04-16T08:46:06.655Z,100972.53
2023-04-16T08:48:34.392Z,100972.81
2023-04-16T08:51:02.680Z,100973.81
2023-04-16T08:53:52.325Z,100983.13
2023-04-16T08:56:21.544Z,100973.91
2023-04-16T08:58:50.077Z,100981.84
2023-04-16T09:01:20.160Z,100982.34
2023-04-16T09:03:48.911Z,100983.97
2023-04-16T09:06:17.300Z,100979.66
2023-04-16T09:08:48.120Z,100984.44
2023-04-16T09:11:18.093Z,100987.56
2023-04-16T09:13:46.437Z,100991.22
2023-04-16T09:16:13.892Z,100990.81
2023-04-16T09:18:41.869Z,100992.03
2023-04-16T09:21:11.174Z,100991.63
2023-04-16T09:23:39.138Z,100988.25
2023-04-16T09:26:06.315Z,100990.00
2023-04-16T09:28:44.043Z,100995.38
2023-04-16T09:31:11.645Z,100994.69
2023-04-16T09:33:38.671Z,100997.84
2023-04-16T09:36:06.106Z,100994.81
2023-04-16T09:38:48.808Z,101001.84
2023-04-16T09:41:18.990Z,101003.91
2023-04-16T09:43:56.821Z,101002.06
2023-04-16T09:46:41.039Z,101001.00
2023-04-16T09:49:11.641Z,101003.56
2023-04-16T09:51:42.935Z,101011.47
2023-04-16T09:54:10.116Z,101002.69
2023-04-16T09:56:44.635Z,101001.22
2023-04-16T09:59:18.718Z,101009.91
2023-04-16T10:01:47.129Z,101007.06
2023-04-16T10:04:14.016Z,101014.66
2023-04-16T10:06:40.970Z,101016.09
2023-04-16T10:09:10.105Z,101015.31
2023-04-16T10:11:37.771Z,101015.91
2023-04-16T10:14:04.721Z,101019.72
2023-04-16T10:16:32.341Z,101014.06
2023-04-16T10:18:59.257Z,101022.09
2023-04-16T10:21:33.695Z,101024.88
2023-04-16T10:24:01.136Z,101020.06
2023-04-16T10:26:29.851Z,101026.94
2023-04-16T10:28:58.188Z,101033.78
2023-04-16T10:31:29.195Z,101026.03
2023-04-16T10:33:56.917Z,101040.22
2023-04-16T10:36:27.154Z,101037.91
2023-04-16T10:38:59.192Z,101039.53
2023-04-16T10:41:28.418Z,101030.56
2023-04-16T10:44:11.324Z,101038.38
2023-04-16T10:46:42.895Z,101035.34
2023-04-16T10:49:17.677Z,101038.00
2023-04-16T10:52:07.600Z,101038.47
2023-04-16T10:54:36.585Z,101039.13
2023-04-16T10:57:05.132Z,101038.13
2023-04-16T10:59:36.577Z,101039.19
2023-04-16T11:02:14.048Z,101044.72
2023-04-16T11:04:44.101Z,101043.38
2023-04-16T11:07:16.605Z,101045.44
2023-04-16T11:10:13.441Z,101037.81
2023-04-16T11:12:41.780Z,101047.38
2023-04-16T11:15:11.045Z,101040.53
2023-04-16T11:17:47.697Z,101050.31
2023-04-16T11:20:21.783Z,101051.59
2023-04-16T11:22:51.916Z,101040.16
2023-04-16T11:25:24.458Z,101045.25
2023-04-16T11:27:52.086Z,101044.94
2023-04-16T11:30:27.766Z,101050.78
2023-04-16T11:32:54.454Z,101052.13
2023-04-16T11:35:21.108Z,101053.94
2023-04-16T11:37:50.722Z,101048.41
2023-04-16T11:40:17.240Z,101046.06
2023-04-16T11:42:44.444Z,101047.25
2023-04-16T11:45:12.531Z,101046.78
2023-04-16T11:47:46.680Z,101042.88
2023-04-16T11:50:18.695Z,101046.81
2023-04-16T11:52:45.324Z,101045.00
2023-04-16T11:55:12.133Z,101041.00
2023-04-16T11:57:38.963Z,101046.25
2023-04-16T12:00:10.646Z,101043.78
2023-04-16T12:02:41.260Z,101047.09
2023-04-16T12:05:28.477Z,101052.47
2023-04-16T12:07:55.864Z,101049.03
2023-04-16T12:10:22.425Z,101054.91
2023-04-16T12:12:49.034Z,101060.69
2023-04-16T12:15:15.719Z,101060.22
2023-04-16T12:17:42.434Z,101063.22
2023-04-16T12:20:09.938Z,101072.22
2023-04-16T12:22:41.390Z,101067.03
2023-04-16T12:25:11.640Z,101062.63
2023-04-16T12:27:47.099Z,101062.66
2023-04-16T12:30:19.008Z,101063.38
2023-04-16T12:32:48.060Z,101063.69
2023-04-16T12:35:28.835Z,101068.22
2023-04-16T12:37:55.334Z,101069.75
2023-04-16T12:40:21.841Z,101074.84
2023-04-16T12:42:48.420Z,101070.41
2023-04-16T12:45:15.017Z,101070.97
2023-04-16T12:47:41.600Z,101075.88
2023-04-16T12:50:08.345Z,101064.78
2023-04-16T12:52:35.818Z,101076.66
2023-04-16T12:55:03.133Z,101070.19
2023-04-16T12:57:29.693Z,101074.63
2023-04-16T12:59:57.350Z,101076.03
2023-04-16T13:02:24.803Z,101074.53
2023-04-16T13:04:54.671Z,101079.19
2023-04-16T13:07:22.054Z,101078.94
2023-04-16T13:09:48.673Z,101080.81
2023-04-16T13:12:15.635Z,101080.16
2023-04-16T13:14:44.615Z,101076.38
2023-04-16T13:17:11.579Z,101080.44
2023-04-16T13:19:38.100Z,101076.88
2023-04-16T13:22:04.627Z,101075.94
2023-04-16T13:24:31.368Z,101080.81
2023-04-16T13:26:57.892Z,101073.81
2023-04-16T13:29:24.486Z,101078.09
2023-04-16T13:31:51.118Z,101076.84
2023-04-16T13:34:17.679Z,101078.59
2023-04-16T13:36:44.364Z,101083.41
2023-04-16T13:39:11.614Z,101088.22
2023-04-16T13:41:38.866Z,101088.34
2023-04-16T13:44:05.685Z,101094.16
2023-04-16T13:46:32.507Z,101087.38
2023-04-16T13:48:59.116Z,101100.72
2023-04-16T13:51:27.370Z,101095.75
2023-04-16T13:53:54.755Z,101095.88
2023-04-16T13:56:21.344Z,101100.84
2023-04-16T13:58:47.922Z,101092.91
2023-04-16T14:01:14.757Z,101094.44
2023-04-16T14:03:42.098Z,101095.97
2023-04-16T14:06:08.786Z,101098.41
2023-04-16T14:08:35.367Z,101092.41
2023-04-16T14:11:02.158Z,101095.25
2023-04-16T14:13:28.745Z,101097.38
2023-04-16T14:15:55.712Z,101088.47
2023-04-16T14:18:22.476Z,101097.25
2023-04-16T14:20:49.063Z,101092.59
2023-04-16T14:23:15.744Z,101099.47
2023-04-16T14:25:42.275Z,101102.50
2023-04-16T14:28:09.357Z,101104.13
2023-04-16T14:30:35.853Z,101106.31
2023-04-16T14:33:06.720Z,101100.84
2023-04-16T14:35:34.101Z,101097.25
2023-04-16T14:38:01.318Z,101103.66
2023-04-16T14:40:27.797Z,101104.41
2023-04-16T14:42:54.374Z,101105.88
2023-04-16T14:45:21.184Z,101101.91
2023-04-16T14:47:48.153Z,101103.81
2023-04-16T14:50:15.565Z,101100.63
2023-04-16T14:52:42.247Z,101102.28
2023-04-16T14:55:09.003Z,101106.94
2023-04-16T14:57:35.918Z,101110.53
2023-04-16T15:00:02.907Z,101108.75
2023-04-16T15:02:29.637Z,101106.34
2023-04-16T15:04:56.261Z,101113.22
2023-04-16T15:07:22.807Z,101111.22
2023-04-16T15:09:49.260Z,101114.00
2023-04-16T15:12:17.932Z,101107.75
2023-04-16T15:14:45.659Z,101113.97
2023-04-16T15:17:12.174Z,101119.81
2023-04-16T15:19:38.768Z,101120.41
2023-04-16T15:22:05.302Z,101124.63
2023-04-16T15:24:31.774Z,101118.78
2023-04-16T15:26:58.373Z,101122.22
2023-04-16T15:29:24.969Z,101123.41
2023-04-16T15:31:51.683Z,101119.19
2023-04-16T15:34:18.356Z,101118.38
2023-04-16T15:36:44.879Z,101123.25
2023-04-16T15:39:11.463Z,101124.00
2023-04-16T15:41:50.180Z,101121.41
2023-04-16T15:44:26.001Z,101129.25
2023-04-16T15:46:52.646Z,101129.06
2023-04-16T15:49:19.107Z,101134.91
2023-04-16T15:51:46.264Z,101129.31
2023-04-16T15:54:12.737Z,101134.53
2023-04-16T15:56:39.608Z,101141.22
2023-04-16T15:59:06.483Z,101141.41
2023-04-16T16:01:33.008Z,101141.63
2023-04-16T16:03:59.747Z,101148.28
2023-04-16T16:06:27.179Z,101148.28
2023-04-16T16:08:54.505Z,101150.72
2023-04-16T16:11:21.835Z,101154.72
2023-04-16T16:13:48.446Z,101152.94
2023-04-16T16:16:15.371Z,101150.09
2023-04-16T16:18:42.244Z,101157.13
2023-04-16T16:21:08.841Z,101154.34
2023-04-16T16:23:35.326Z,101156.97
2023-04-16T16:26:01.905Z,101155.94
2023-04-16T16:28:28.432Z,101160.16
2023-04-16T16:30:55.665Z,101168.78
2023-04-16T16:33:22.474Z,101177.25
2023-04-16T16:35:48.953Z,101168.41
2023-04-16T16:38:15.565Z,101162.97
2023-04-16T16:40:42.193Z,101163.97
2023-04-16T16:43:08.914Z,101176.41
2023-04-16T16:45:35.424Z,101173.75
2023-04-16T16:48:03.851Z,101178.97
2023-04-16T16:50:33.278Z,101178.19
2023-04-16T16:53:00.432Z,101182.00
2023-04-16T16:55:27.115Z,101186.63
2023-04-16T16:57:53.607Z,101189.63
2023-04-16T17:00:21.471Z,101196.03
2023-04-16T17:02:51.189Z,101188.38
2023-04-16T17:05:18.185Z,101192.41
2023-04-16T17:07:44.757Z,101187.19
2023-04-16T17:10:13.108Z,101185.91
2023-04-16T17:12:39.752Z,101189.50
2023-04-16T17:15:06.702Z,101194.47
2023-04-16T17:17:33.365Z,101196.31
2023-04-16T17:20:01.032Z,101195.91
2023-04-16T17:22:27.928Z,101206.28
2023-04-16T17:24:54.484Z,101203.69
2023-04-16T17:27:21.005Z,101207.69
2023-04-16T17:29:47.566Z,101214.06
2023-04-16T17:32:14.196Z,101221.50
2023-04-16T17:34:41.004Z,101219.28
2023-04-16T17:37:07.465Z,101220.28
2023-04-16T17:39:33.901Z,101220.50
2023-04-16T17:42:02.973Z,101220.09
2023-04-16T17:44:29.470Z,101220.06
2023-04-16T17:46:57.217Z,101228.25
2023-04-16T17:49:23.906Z,101221.63
2023-04-16T17:51:50.559Z,101230.44
2023-04-16T17:54:17.032Z,101235.66
2023-04-16T17:56:43.543Z,101236.88
2023-04-16T17:59:10.118Z,101233.63
2023-04-16T18:01:36.717Z,101245.28
2023-04-16T18:04:03.312Z,101247.50
2023-04-16T18:06:30.944Z,101250.16
2023-04-16T18:08:57.467Z,101251.50
2023-04-16T18:11:23.981Z,101264.53
2023-04-16T18:13:52.489Z,101261.09
2023-04-16T18:16:19.216Z,101273.34
2023-04-16T18:18:46.125Z,101270.97
2023-04-16T18:21:12.913Z,101272.78
2023-04-16T18:23:39.445Z,101282.28
2023-04-16T18:26:08.511Z,101288.22
2023-04-16T18:28:35.989Z,101284.03
2023-04-16T18:31:05.670Z,101278.00
2023-04-16T18:36:02.421Z,101290.22
2023-04-16T18:38:32.040Z,101291.66
2023-04-16T18:40:59.433Z,101295.00
2023-04-16T18:43:26.350Z,101293.66
2023-04-16T18:45:52.917Z,101299.63
2023-04-16T18:48:19.732Z,101300.63
2023-04-16T18:50:46.270Z,101305.03
2023-04-16T18:53:12.845Z,101306.22
2023-04-16T18:55:39.503Z,101306.84
2023-04-16T18:58:06.155Z,101304.78
2023-04-16T19:00:32.786Z,101303.75
2023-04-16T19:02:59.465Z,101306.72
2023-04-16T19:05:26.215Z,101304.50
2023-04-16T19:07:52.915Z,101302.50
2023-04-16T19:10:19.401Z,101301.06
2023-04-16T19:12:45.976Z,101298.28
2023-04-16T19:15:12.659Z,101298.84
2023-04-16T19:17:40.024Z,101303.44
2023-04-16T19:20:11.325Z,101306.59
2023-04-16T19:22:38.458Z,101309.03
2023-04-16T19:25:06.041Z,101310.81
2023-04-16T19:27:32.945Z,101312.44
2023-04-16T19:29:59.617Z,101311.00
2023-04-16T19:32:26.134Z,101313.00
2023-04-16T19:34:52.767Z,101316.84
2023-04-16T19:37:19.271Z,101320.91
2023-04-16T19:39:46.037Z,101320.72
2023-04-16T19:42:12.741Z,101316.28
2023-04-16T19:44:39.247Z,101323.41
2023-04-16T19:47:06.466Z,101332.44
2023-04-16T19:49:34.466Z,101317.16
2023-04-16T19:52:01.363Z,101319.22
2023-04-16T19:54:28.690Z,101315.34
2023-04-16T19:56:55.542Z,101319.69
2023-04-16T19:59:22.155Z,101321.69
2023-04-16T20:01:48.710Z,101318.91
2023-04-16T20:04:15.452Z,101322.28
2023-04-16T20:06:41.952Z,101318.91
2023-04-16T20:09:08.496Z,101324.50
2023-04-16T20:11:35.515Z,101321.25
2023-04-16T20:14:02.072Z,101330.25
2023-04-16T20:16:30.279Z,101334.38
2023-04-16T20:18:57.558Z,101333.41
2023-04-16T20:21:25.239Z,101336.84
2023-04-16T20:23:51.907Z,101329.38
2023-04-16T20:26:19.348Z,101332.16
2023-04-16T20:28:46.172Z,101340.41
2023-04-16T20:31:13.364Z,101335.91
2023-04-16T20:33:39.930Z,101344.09
2023-04-16T20:36:07.109Z,101338.81
2023-04-16T20:38:35.438Z,101337.19
2023-04-16T20:41:12.122Z,101344.03
2023-04-16T20:43:41.117Z,101346.00
2023-04-16T20:46:12.316Z,101342.22
2023-04-16T20:48:39.072Z,101344.38
2023-04-16T20:51:07.605Z,101346.38
2023-04-16T20:53:34.310Z,101344.75
2023-04-16T20:56:01.005Z,101346.91
2023-04-16T20:58:27.483Z,101346.13
2023-04-16T21:00:56.028Z,101348.72
2023-04-16T21:03:22.844Z,101349.16
2023-04-16T21:05:51.344Z,101346.72
2023-04-16T21:08:18.103Z,101350.09
2023-04-16T21:10:45.136Z,101349.28
2023-04-16T21:13:11.931Z,101358.53
2023-04-16T21:15:39.989Z,101352.13
2023-04-16T21:18:07.160Z,101354.34
2023-04-16T21:20:34.322Z,101347.53
2023-04-16T21:23:01.537Z,101340.63
2023-04-16T21:25:28.381Z,101336.16
2023-04-16T21:27:54.839Z,101339.78
2023-04-16T21:30:21.883Z,101341.81
2023-04-16T21:32:48.708Z,101342.97
2023-04-16T21:35:15.224Z,101349.00
2023-04-16T21:37:41.762Z,101354.41
2023-04-16T21:40:08.713Z,101349.63
2023-04-16T21:42:39.663Z,101352.81
2023-04-16T21:45:11.807Z,101354.59
2023-04-16T21:47:38.406Z,101353.78
2023-04-16T21:50:05.786Z,101356.00
2023-04-16T21:52:33.058Z,101346.59
2023-04-16T21:55:00.614Z,101355.41
2023-04-16T21:57:27.140Z,101354.22
2023-04-16T21:59:53.670Z,101352.63
2023-04-16T22:02:20.416Z,101355.22
2023-04-16T22:04:47.252Z,101349.63
2023-04-16T22:07:13.801Z,101351.81
2023-04-16T22:09:40.848Z,101351.63
2023-04-16T22:12:10.174Z,101357.84
2023-04-16T22:14:38.373Z,101356.81
2023-04-16T22:17:09.393Z,101363.31
2023-04-16T22:19:37.199Z,101352.88
2023-04-16T22:22:03.734Z,101363.13
2023-04-16T22:24:30.409Z,101366.53
2023-04-16T22:26:57.173Z,101360.69
2023-04-16T22:29:23.728Z,101360.69
2023-04-16T22:31:50.423Z,101362.66
2023-04-16T22:34:17.005Z,101363.50
2023-04-16T22:36:43.484Z,101358.53
2023-04-16T22:39:10.155Z,101366.69
2023-04-16T22:41:37.501Z,101364.09
2023-04-16T22:44:04.126Z,101361.66
2023-04-16T22:46:31.061Z,101363.81
2023-04-16T22:48:57.954Z,101356.81
2023-04-16T22:51:24.523Z,101366.81
2023-04-16T22:53:54.118Z,101358.72
2023-04-16T22:56:21.395Z,101362.34
2023-04-16T22:58:49.397Z,101361.97
2023-04-16T23:01:16.951Z,101363.13
2023-04-16T23:03:43.588Z,101367.28
2023-04-16T23:06:10.221Z,101369.16
2023-04-16T23:08:36.726Z,101369.78
2023-04-16T23:11:03.411Z,101358.28
2023-04-16T23:13:30.005Z,101365.38
2023-04-16T23:15:56.532Z,101366.19
2023-04-16T23:18:23.124Z,101359.63
2023-04-16T23:20:53.353Z,101359.81
2023-04-16T23:23:19.951Z,101361.97
2023-04-16T23:25:46.511Z,101363.72
2023-04-16T23:28:13.113Z,101373.75
2023-04-16T23:30:39.621Z,101366.00
2023-04-16T23:33:06.709Z,101365.88
2023-04-16T23:35:33.290Z,101367.66
2023-04-16T23:37:59.910Z,101376.28
2023-04-16T23:40:26.470Z,101374.28
2023-04-16T23:42:52.940Z,101372.69
2023-04-16T23:45:19.457Z,101369.06
2023-04-16T23:47:46.983Z,101365.31
2023-04-16T23:50:13.463Z,101363.97
2023-04-16T23:52:40.109Z,101366.19
2023-04-16T23:55:06.922Z,101363.59
2023-04-16T23:57:33.435Z,101369.81
2023-04-16T23:59:59.928Z,101362.88
